sensor_id;sensor_type;location;lat;lon;timestamp;P1;durP1;ratioP1;P2;durP2;ratioP2
9310;SDS011;4694;52.464;13.480;2023-04-07T07:54:32;15.80;;;7.93;;
9310;SDS011;4694;52.464;13.480;2023-04-07T07:56:59;18.02;;;9.15;;
9310;SDS011;4694;52.464;13.480;2023-04-07T07:59:29;15.52;;;8.25;;
9310;SDS011;4694;52.464;13.480;2023-04-07T08:01:56;12.02;;;7.10;;
9310;SDS011;4694;52.464;13.480;2023-04-07T08:04:23;12.73;;;7.53;;
9310;SDS011;4694;52.464;13.480;2023-04-07T08:06:50;13.38;;;7.43;;
9310;SDS011;4694;52.464;13.480;2023-04-07T08:09:18;13.52;;;7.07;;
9310;SDS011;4694;52.464;13.480;2023-04-07T08:11:46;13.00;;;5.95;;
9310;SDS011;4694;52.464;13.480;2023-04-07T08:14:14;9.98;;;5.43;;
9310;SDS011;4694;52.464;13.480;2023-04-07T08:16:41;7.60;;;5.35;;
9310;SDS011;4694;52.464;13.480;2023-04-07T08:19:08;8.70;;;4.80;;
9310;SDS011;4694;52.464;13.480;2023-04-07T08:21:35;8.77;;;5.20;;
9310;SDS011;4694;52.464;13.480;2023-04-07T08:24:02;6.47;;;4.25;;
9310;SDS011;4694;52.464;13.480;2023-04-07T08:26:29;11.02;;;5.82;;
9310;SDS011;4694;52.464;13.480;2023-04-07T08:28:57;4.93;;;4.07;;
9310;SDS011;4694;52.464;13.480;2023-04-07T08:31:25;7.05;;;4.28;;
9310;SDS011;4694;52.464;13.480;2023-04-07T08:33:52;10.43;;;4.70;;
9310;SDS011;4694;52.464;13.480;2023-04-07T08:36:22;7.25;;;3.67;;
9310;SDS011;4694;52.464;13.480;2023-04-07T08:38:49;8.68;;;5.25;;
9310;SDS011;4694;52.464;13.480;2023-04-07T08:41:16;7.70;;;4.55;;
9310;SDS011;4694;52.464;13.480;2023-04-07T08:43:43;9.90;;;5.50;;
9310;SDS011;4694;52.464;13.480;2023-04-07T08:46:14;8.65;;;4.57;;
9310;SDS011;4694;52.464;13.480;2023-04-07T08:48:43;9.35;;;5.43;;
9310;SDS011;4694;52.464;13.480;2023-04-07T08:51:10;18.35;;;7.00;;
9310;SDS011;4694;52.464;13.480;2023-04-07T08:53:40;9.73;;;6.18;;
9310;SDS011;4694;52.464;13.480;2023-04-07T08:56:07;10.45;;;5.22;;
9310;SDS011;4694;52.464;13.480;2023-04-07T08:58:34;8.77;;;5.60;;
9310;SDS011;4694;52.464;13.480;2023-04-07T09:01:02;10.18;;;6.53;;
9310;SDS011;4694;52.464;13.480;2023-04-07T09:03:31;7.53;;;5.00;;
9310;SDS011;4694;52.464;13.480;2023-04-07T09:05:59;10.32;;;6.53;;
9310;SDS011;4694;52.464;13.480;2023-04-07T09:08:26;9.90;;;5.25;;
9310;SDS011;4694;52.464;13.480;2023-04-07T09:10:54;10.10;;;5.53;;
9310;SDS011;4694;52.464;13.480;2023-04-07T09:13:22;11.88;;;6.30;;
9310;SDS011;4694;52.464;13.480;2023-04-07T09:15:50;8.50;;;4.88;;
9310;SDS011;4694;52.464;13.480;2023-04-07T09:18:17;9.90;;;5.05;;
9310;SDS011;4694;52.464;13.480;2023-04-07T09:20:55;7.80;;;4.88;;
9310;SDS011;4694;52.464;13.480;2023-04-07T09:23:26;10.60;;;6.63;;
9310;SDS011;4694;52.464;13.480;2023-04-07T09:25:54;9.68;;;5.20;;
9310;SDS011;4694;52.464;13.480;2023-04-07T09:28:23;8.93;;;4.93;;
9310;SDS011;4694;52.464;13.480;2023-04-07T09:30:54;8.63;;;4.68;;
9310;SDS011;4694;52.464;13.480;2023-04-07T09:33:25;9.75;;;4.90;;
9310;SDS011;4694;52.464;13.480;2023-04-07T09:35:53;6.18;;;4.40;;
9310;SDS011;4694;52.464;13.480;2023-04-07T09:38:22;5.75;;;3.38;;
9310;SDS011;4694;52.464;13.480;2023-04-07T09:41:03;7.05;;;3.90;;
9310;SDS011;4694;52.464;13.480;2023-04-07T09:43:31;5.82;;;2.95;;
9310;SDS011;4694;52.464;13.480;2023-04-07T09:46:05;5.28;;;3.85;;
9310;SDS011;4694;52.464;13.480;2023-04-07T09:48:33;6.35;;;3.33;;
9310;SDS011;4694;52.464;13.480;2023-04-07T09:51:03;10.32;;;4.60;;
9310;SDS011;4694;52.464;13.480;2023-04-07T09:53:37;8.13;;;4.57;;
9310;SDS011;4694;52.464;13.480;2023-04-07T09:56:08;11.88;;;5.97;;
9310;SDS011;4694;52.464;13.480;2023-04-07T09:58:36;6.43;;;3.38;;
9310;SDS011;4694;52.464;13.480;2023-04-07T10:01:03;5.25;;;4.32;;
9310;SDS011;4694;52.464;13.480;2023-04-07T10:03:32;9.75;;;4.55;;
9310;SDS011;4694;52.464;13.480;2023-04-07T10:05:59;7.75;;;4.60;;
9310;SDS011;4694;52.464;13.480;2023-04-07T10:08:26;7.65;;;4.82;;
9310;SDS011;4694;52.464;13.480;2023-04-07T10:10:55;7.25;;;4.43;;
9310;SDS011;4694;52.464;13.480;2023-04-07T10:13:22;7.25;;;4.82;;
9310;SDS011;4694;52.464;13.480;2023-04-07T10:15:50;7.72;;;3.90;;
9310;SDS011;4694;52.464;13.480;2023-04-07T10:18:18;7.97;;;3.85;;
9310;SDS011;4694;52.464;13.480;2023-04-07T10:20:46;7.05;;;4.18;;
9310;SDS011;4694;52.464;13.480;2023-04-07T10:23:15;5.00;;;3.03;;
9310;SDS011;4694;52.464;13.480;2023-04-07T10:25:43;5.53;;;2.83;;
9310;SDS011;4694;52.464;13.480;2023-04-07T10:28:14;6.40;;;2.85;;
9310;SDS011;4694;52.464;13.480;2023-04-07T10:30:41;5.47;;;2.65;;
9310;SDS011;4694;52.464;13.480;2023-04-07T10:33:09;6.20;;;3.05;;
9310;SDS011;4694;52.464;13.480;2023-04-07T10:36:01;6.90;;;4.07;;
9310;SDS011;4694;52.464;13.480;2023-04-07T10:38:29;4.53;;;3.53;;
9310;SDS011;4694;52.464;13.480;2023-04-07T10:40:56;3.67;;;2.95;;
9310;SDS011;4694;52.464;13.480;2023-04-07T10:46:10;6.97;;;3.55;;
9310;SDS011;4694;52.464;13.480;2023-04-07T10:48:37;7.10;;;3.58;;
9310;SDS011;4694;52.464;13.480;2023-04-07T10:51:14;6.82;;;3.70;;
9310;SDS011;4694;52.464;13.480;2023-04-07T10:56:41;8.85;;;4.45;;
9310;SDS011;4694;52.464;13.480;2023-04-07T11:02:04;8.02;;;3.38;;
9310;SDS011;4694;52.464;13.480;2023-04-07T11:04:51;8.48;;;4.43;;
9310;SDS011;4694;52.464;13.480;2023-04-07T11:07:18;7.22;;;4.22;;
9310;SDS011;4694;52.464;13.480;2023-04-07T11:10:08;6.85;;;3.70;;
9310;SDS011;4694;52.464;13.480;2023-04-07T11:12:35;6.80;;;3.38;;
9310;SDS011;4694;52.464;13.480;2023-04-07T11:15:15;9.60;;;4.35;;
9310;SDS011;4694;52.464;13.480;2023-04-07T11:17:43;6.68;;;3.28;;
9310;SDS011;4694;52.464;13.480;2023-04-07T11:20:10;8.02;;;4.35;;
9310;SDS011;4694;52.464;13.480;2023-04-07T11:22:37;8.05;;;5.03;;
9310;SDS011;4694;52.464;13.480;2023-04-07T11:25:18;8.90;;;4.43;;
9310;SDS011;4694;52.464;13.480;2023-04-07T11:27:45;5.70;;;4.07;;
9310;SDS011;4694;52.464;13.480;2023-04-07T11:30:14;8.60;;;5.38;;
9310;SDS011;4694;52.464;13.480;2023-04-07T11:32:47;6.50;;;5.03;;
9310;SDS011;4694;52.464;13.480;2023-04-07T11:35:15;8.98;;;5.70;;
9310;SDS011;4694;52.464;13.480;2023-04-07T11:37:42;10.68;;;6.38;;
9310;SDS011;4694;52.464;13.480;2023-04-07T11:40:10;8.30;;;4.90;;
9310;SDS011;4694;52.464;13.480;2023-04-07T11:42:40;8.45;;;5.47;;
9310;SDS011;4694;52.464;13.480;2023-04-07T11:45:15;12.43;;;9.40;;
9310;SDS011;4694;52.464;13.480;2023-04-07T11:47:43;17.13;;;9.93;;
9310;SDS011;4694;52.464;13.480;2023-04-07T11:50:11;17.58;;;10.95;;
9310;SDS011;4694;52.464;13.480;2023-04-07T11:52:39;20.75;;;12.05;;
9310;SDS011;4694;52.464;13.480;2023-04-07T11:55:09;17.88;;;11.20;;
9310;SDS011;4694;52.464;13.480;2023-04-07T11:57:42;19.45;;;13.23;;
9310;SDS011;4694;52.464;13.480;2023-04-07T12:00:09;21.83;;;11.93;;
9310;SDS011;4694;52.464;13.480;2023-04-07T12:02:38;23.55;;;15.60;;
9310;SDS011;4694;52.464;13.480;2023-04-07T12:05:05;25.95;;;15.02;;
9310;SDS011;4694;52.464;13.480;2023-04-07T12:07:35;25.52;;;15.70;;
9310;SDS011;4694;52.464;13.480;2023-04-07T12:10:18;19.73;;;12.23;;
9310;SDS011;4694;52.464;13.480;2023-04-07T12:12:46;22.38;;;14.02;;
9310;SDS011;4694;52.464;13.480;2023-04-07T12:15:13;18.48;;;12.48;;
9310;SDS011;4694;52.464;13.480;2023-04-07T12:17:43;19.40;;;11.25;;
9310;SDS011;4694;52.464;13.480;2023-04-07T12:20:11;15.98;;;9.68;;
9310;SDS011;4694;52.464;13.480;2023-04-07T12:22:40;15.45;;;9.00;;
9310;SDS011;4694;52.464;13.480;2023-04-07T12:25:07;11.32;;;8.23;;
9310;SDS011;4694;52.464;13.480;2023-04-07T12:27:34;13.32;;;8.35;;
9310;SDS011;4694;52.464;13.480;2023-04-07T12:30:01;13.30;;;7.13;;
9310;SDS011;4694;52.464;13.480;2023-04-07T12:32:29;16.15;;;8.40;;
9310;SDS011;4694;52.464;13.480;2023-04-07T12:34:56;15.15;;;8.30;;
9310;SDS011;4694;52.464;13.480;2023-04-07T12:37:23;13.38;;;7.78;;
9310;SDS011;4694;52.464;13.480;2023-04-07T12:39:52;14.50;;;8.55;;
9310;SDS011;4694;52.464;13.480;2023-04-07T12:42:19;15.38;;;8.55;;
9310;SDS011;4694;52.464;13.480;2023-04-07T12:44:46;21.42;;;9.50;;
9310;SDS011;4694;52.464;13.480;2023-04-07T12:47:13;17.02;;;9.63;;
9310;SDS011;4694;52.464;13.480;2023-04-07T12:49:41;17.45;;;10.35;;
9310;SDS011;4694;52.464;13.480;2023-04-07T12:52:08;20.98;;;11.57;;
9310;SDS011;4694;52.464;13.480;2023-04-07T12:54:36;20.73;;;11.23;;
9310;SDS011;4694;52.464;13.480;2023-04-07T12:57:04;22.23;;;10.77;;
9310;SDS011;4694;52.464;13.480;2023-04-07T12:59:31;17.75;;;10.48;;
9310;SDS011;4694;52.464;13.480;2023-04-07T13:01:58;17.92;;;9.73;;
9310;SDS011;4694;52.464;13.480;2023-04-07T13:04:26;21.17;;;10.65;;
9310;SDS011;4694;52.464;13.480;2023-04-07T13:06:54;19.35;;;11.38;;
9310;SDS011;4694;52.464;13.480;2023-04-07T13:09:21;21.30;;;10.93;;
9310;SDS011;4694;52.464;13.480;2023-04-07T13:11:48;18.52;;;9.43;;
9310;SDS011;4694;52.464;13.480;2023-04-07T13:14:17;18.95;;;9.90;;
9310;SDS011;4694;52.464;13.480;2023-04-07T13:16:44;10.93;;;6.28;;
9310;SDS011;4694;52.464;13.480;2023-04-07T13:19:11;13.70;;;7.18;;
9310;SDS011;4694;52.464;13.480;2023-04-07T13:21:38;11.30;;;6.75;;
9310;SDS011;4694;52.464;13.480;2023-04-07T13:24:05;16.73;;;7.60;;
9310;SDS011;4694;52.464;13.480;2023-04-07T13:26:32;10.57;;;5.13;;
9310;SDS011;4694;52.464;13.480;2023-04-07T13:28:59;10.13;;;5.30;;
9310;SDS011;4694;52.464;13.480;2023-04-07T13:31:27;11.15;;;6.40;;
9310;SDS011;4694;52.464;13.480;2023-04-07T13:33:54;7.75;;;4.35;;
9310;SDS011;4694;52.464;13.480;2023-04-07T13:36:21;9.23;;;4.40;;
9310;SDS011;4694;52.464;13.480;2023-04-07T13:38:48;10.95;;;6.03;;
9310;SDS011;4694;52.464;13.480;2023-04-07T13:41:15;8.18;;;4.03;;
9310;SDS011;4694;52.464;13.480;2023-04-07T13:43:42;8.48;;;3.75;;
9310;SDS011;4694;52.464;13.480;2023-04-07T13:46:11;6.30;;;3.72;;
9310;SDS011;4694;52.464;13.480;2023-04-07T13:48:41;7.47;;;4.43;;
9310;SDS011;4694;52.464;13.480;2023-04-07T13:51:08;10.07;;;4.32;;
9310;SDS011;4694;52.464;13.480;2023-04-07T13:53:36;7.53;;;3.75;;
9310;SDS011;4694;52.464;13.480;2023-04-07T13:56:03;5.18;;;4.30;;
9310;SDS011;4694;52.464;13.480;2023-04-07T13:58:32;5.72;;;3.47;;
9310;SDS011;4694;52.464;13.480;2023-04-07T14:00:59;12.02;;;4.60;;
9310;SDS011;4694;52.464;13.480;2023-04-07T14:03:26;7.10;;;4.25;;
9310;SDS011;4694;52.464;13.480;2023-04-07T14:05:54;8.60;;;4.15;;
9310;SDS011;4694;52.464;13.480;2023-04-07T14:08:24;5.35;;;4.18;;
9310;SDS011;4694;52.464;13.480;2023-04-07T14:10:51;6.82;;;4.30;;
9310;SDS011;4694;52.464;13.480;2023-04-07T14:13:18;7.53;;;5.03;;
9310;SDS011;4694;52.464;13.480;2023-04-07T14:15:46;7.35;;;4.72;;
9310;SDS011;4694;52.464;13.480;2023-04-07T14:18:13;12.70;;;5.85;;
9310;SDS011;4694;52.464;13.480;2023-04-07T14:20:41;7.22;;;4.60;;
9310;SDS011;4694;52.464;13.480;2023-04-07T14:23:09;8.63;;;4.57;;
9310;SDS011;4694;52.464;13.480;2023-04-07T14:25:36;7.70;;;5.75;;
9310;SDS011;4694;52.464;13.480;2023-04-07T14:28:03;5.35;;;4.15;;
9310;SDS011;4694;52.464;13.480;2023-04-07T14:30:34;9.48;;;4.57;;
9310;SDS011;4694;52.464;13.480;2023-04-07T14:33:02;8.20;;;4.10;;
9310;SDS011;4694;52.464;13.480;2023-04-07T14:35:29;10.85;;;5.75;;
9310;SDS011;4694;52.464;13.480;2023-04-07T14:37:56;8.70;;;4.60;;
9310;SDS011;4694;52.464;13.480;2023-04-07T14:40:27;8.48;;;4.68;;
9310;SDS011;4694;52.464;13.480;2023-04-07T14:42:54;4.13;;;3.03;;
9310;SDS011;4694;52.464;13.480;2023-04-07T14:45:23;7.53;;;4.40;;
9310;SDS011;4694;52.464;13.480;2023-04-07T14:47:50;6.63;;;4.35;;
9310;SDS011;4694;52.464;13.480;2023-04-07T14:50:17;6.40;;;4.30;;
9310;SDS011;4694;52.464;13.480;2023-04-07T14:52:44;8.20;;;3.92;;
9310;SDS011;4694;52.464;13.480;2023-04-07T14:55:11;8.80;;;4.40;;
9310;SDS011;4694;52.464;13.480;2023-04-07T14:57:39;5.68;;;3.88;;
9310;SDS011;4694;52.464;13.480;2023-04-07T15:00:07;5.82;;;3.80;;
9310;SDS011;4694;52.464;13.480;2023-04-07T15:02:34;7.68;;;3.65;;
9310;SDS011;4694;52.464;13.480;2023-04-07T15:05:01;6.10;;;4.43;;
9310;SDS011;4694;52.464;13.480;2023-04-07T15:07:28;7.25;;;3.85;;
9310;SDS011;4694;52.464;13.480;2023-04-07T15:09:55;6.72;;;3.75;;
9310;SDS011;4694;52.464;13.480;2023-04-07T15:12:23;7.28;;;3.65;;
9310;SDS011;4694;52.464;13.480;2023-04-07T15:14:53;9.60;;;4.43;;
9310;SDS011;4694;52.464;13.480;2023-04-07T15:17:20;6.75;;;3.78;;
9310;SDS011;4694;52.464;13.480;2023-04-07T15:19:47;10.00;;;4.65;;
9310;SDS011;4694;52.464;13.480;2023-04-07T15:22:14;8.55;;;4.45;;
9310;SDS011;4694;52.464;13.480;2023-04-07T15:24:41;7.53;;;4.22;;
9310;SDS011;4694;52.464;13.480;2023-04-07T15:27:08;6.13;;;3.97;;
9310;SDS011;4694;52.464;13.480;2023-04-07T15:29:35;7.25;;;4.28;;
9310;SDS011;4694;52.464;13.480;2023-04-07T15:32:04;5.25;;;4.55;;
9310;SDS011;4694;52.464;13.480;2023-04-07T15:34:31;8.48;;;5.38;;
9310;SDS011;4694;52.464;13.480;2023-04-07T15:36:58;9.82;;;4.72;;
9310;SDS011;4694;52.464;13.480;2023-04-07T15:39:25;8.85;;;4.07;;
9310;SDS011;4694;52.464;13.480;2023-04-07T15:41:52;8.30;;;4.38;;
9310;SDS011;4694;52.464;13.480;2023-04-07T15:44:20;8.05;;;4.68;;
9310;SDS011;4694;52.464;13.480;2023-04-07T15:46:47;10.32;;;5.30;;
9310;SDS011;4694;52.464;13.480;2023-04-07T15:49:16;8.68;;;4.90;;
9310;SDS011;4694;52.464;13.480;2023-04-07T15:51:46;8.40;;;5.00;;
9310;SDS011;4694;52.464;13.480;2023-04-07T15:54:13;9.00;;;4.18;;
9310;SDS011;4694;52.464;13.480;2023-04-07T15:56:40;8.15;;;4.78;;
9310;SDS011;4694;52.464;13.480;2023-04-07T15:59:07;8.73;;;5.25;;
9310;SDS011;4694;52.464;13.480;2023-04-07T16:01:34;7.03;;;5.13;;
9310;SDS011;4694;52.464;13.480;2023-04-07T16:04:02;7.53;;;4.63;;
9310;SDS011;4694;52.464;13.480;2023-04-07T16:06:30;7.25;;;5.07;;
9310;SDS011;4694;52.464;13.480;2023-04-07T16:08:57;12.30;;;5.00;;
9310;SDS011;4694;52.464;13.480;2023-04-07T16:11:24;6.93;;;4.82;;
9310;SDS011;4694;52.464;13.480;2023-04-07T16:13:51;23.77;;;10.95;;
9310;SDS011;4694;52.464;13.480;2023-04-07T16:16:18;7.65;;;4.25;;
9310;SDS011;4694;52.464;13.480;2023-04-07T16:18:45;9.52;;;4.78;;
9310;SDS011;4694;52.464;13.480;2023-04-07T16:21:12;7.22;;;4.90;;
9310;SDS011;4694;52.464;13.480;2023-04-07T16:23:40;8.20;;;4.40;;
9310;SDS011;4694;52.464;13.480;2023-04-07T16:26:07;6.55;;;4.47;;
9310;SDS011;4694;52.464;13.480;2023-04-07T16:28:35;7.40;;;5.63;;
9310;SDS011;4694;52.464;13.480;2023-04-07T16:31:03;9.75;;;5.50;;
9310;SDS011;4694;52.464;13.480;2023-04-07T16:33:32;7.25;;;3.97;;
9310;SDS011;4694;52.464;13.480;2023-04-07T16:36:00;6.60;;;4.43;;
9310;SDS011;4694;52.464;13.480;2023-04-07T16:38:27;6.80;;;4.07;;
9310;SDS011;4694;52.464;13.480;2023-04-07T16:40:55;6.97;;;5.22;;
9310;SDS011;4694;52.464;13.480;2023-04-07T16:43:22;9.48;;;6.40;;
9310;SDS011;4694;52.464;13.480;2023-04-07T16:45:49;8.35;;;3.78;;
9310;SDS011;4694;52.464;13.480;2023-04-07T16:48:17;7.38;;;4.50;;
9310;SDS011;4694;52.464;13.480;2023-04-07T16:50:44;7.35;;;4.78;;
9310;SDS011;4694;52.464;13.480;2023-04-07T16:53:11;9.13;;;4.75;;
9310;SDS011;4694;52.464;13.480;2023-04-07T16:55:38;7.28;;;4.32;;
9310;SDS011;4694;52.464;13.480;2023-04-07T16:58:06;7.97;;;3.80;;
9310;SDS011;4694;52.464;13.480;2023-04-07T17:00:33;6.82;;;3.60;;
9310;SDS011;4694;52.464;13.480;2023-04-07T17:03:00;6.55;;;4.43;;
9310;SDS011;4694;52.464;13.480;2023-04-07T17:05:27;10.30;;;7.50;;
9310;SDS011;4694;52.464;13.480;2023-04-07T17:07:54;9.35;;;4.60;;
9310;SDS011;4694;52.464;13.480;2023-04-07T17:10:21;6.78;;;3.90;;
9310;SDS011;4694;52.464;13.480;2023-04-07T17:12:48;7.35;;;3.75;;
9310;SDS011;4694;52.464;13.480;2023-04-07T17:15:23;6.80;;;3.40;;
9310;SDS011;4694;52.464;13.480;2023-04-07T17:17:50;7.72;;;4.20;;
9310;SDS011;4694;52.464;13.480;2023-04-07T17:20:17;7.93;;;4.50;;
9310;SDS011;4694;52.464;13.480;2023-04-07T17:22:44;5.80;;;4.35;;
9310;SDS011;4694;52.464;13.480;2023-04-07T17:25:12;7.68;;;4.78;;
9310;SDS011;4694;52.464;13.480;2023-04-07T17:27:41;4.88;;;3.45;;
9310;SDS011;4694;52.464;13.480;2023-04-07T17:30:08;8.98;;;5.68;;
9310;SDS011;4694;52.464;13.480;2023-04-07T17:32:36;6.55;;;4.20;;
9310;SDS011;4694;52.464;13.480;2023-04-07T17:35:04;6.68;;;4.25;;
9310;SDS011;4694;52.464;13.480;2023-04-07T17:37:31;8.13;;;4.55;;
9310;SDS011;4694;52.464;13.480;2023-04-07T17:39:58;8.15;;;4.50;;
9310;SDS011;4694;52.464;13.480;2023-04-07T17:42:25;11.73;;;5.03;;
9310;SDS011;4694;52.464;13.480;2023-04-07T17:44:52;8.85;;;4.57;;
9310;SDS011;4694;52.464;13.480;2023-04-07T17:47:19;7.22;;;4.68;;
9310;SDS011;4694;52.464;13.480;2023-04-07T17:49:48;8.77;;;4.03;;
9310;SDS011;4694;52.464;13.480;2023-04-07T17:52:15;7.85;;;4.38;;
9310;SDS011;4694;52.464;13.480;2023-04-07T17:54:42;5.57;;;3.55;;
9310;SDS011;4694;52.464;13.480;2023-04-07T17:57:09;6.63;;;4.07;;
9310;SDS011;4694;52.464;13.480;2023-04-07T17:59:38;6.00;;;3.90;;
9310;SDS011;4694;52.464;13.480;2023-04-07T18:02:05;7.68;;;4.18;;
9310;SDS011;4694;52.464;13.480;2023-04-07T18:04:32;8.30;;;3.90;;
9310;SDS011;4694;52.464;13.480;2023-04-07T18:07:01;6.10;;;4.50;;
9310;SDS011;4694;52.464;13.480;2023-04-07T18:09:28;9.35;;;4.90;;
9310;SDS011;4694;52.464;13.480;2023-04-07T18:11:56;6.00;;;3.33;;
9310;SDS011;4694;52.464;13.480;2023-04-07T18:14:23;6.88;;;4.43;;
9310;SDS011;4694;52.464;13.480;2023-04-07T18:16:51;6.88;;;4.35;;
9310;SDS011;4694;52.464;13.480;2023-04-07T18:19:19;7.97;;;3.97;;
9310;SDS011;4694;52.464;13.480;2023-04-07T18:21:46;7.38;;;5.78;;
9310;SDS011;4694;52.464;13.480;2023-04-07T18:24:15;9.55;;;4.97;;
9310;SDS011;4694;52.464;13.480;2023-04-07T18:26:42;7.95;;;5.30;;
9310;SDS011;4694;52.464;13.480;2023-04-07T18:29:09;10.10;;;5.88;;
9310;SDS011;4694;52.464;13.480;2023-04-07T18:34:03;8.80;;;5.80;;
9310;SDS011;4694;52.464;13.480;2023-04-07T18:36:30;8.35;;;5.13;;
9310;SDS011;4694;52.464;13.480;2023-04-07T18:38:57;8.30;;;5.30;;
9310;SDS011;4694;52.464;13.480;2023-04-07T18:41:26;6.88;;;4.32;;
9310;SDS011;4694;52.464;13.480;2023-04-07T18:43:53;5.38;;;4.10;;
9310;SDS011;4694;52.464;13.480;2023-04-07T18:46:20;5.60;;;3.83;;
9310;SDS011;4694;52.464;13.480;2023-04-07T18:48:47;5.07;;;3.63;;
9310;SDS011;4694;52.464;13.480;2023-04-07T18:51:14;5.82;;;3.42;;
9310;SDS011;4694;52.464;13.480;2023-04-07T18:53:41;6.00;;;3.40;;
9310;SDS011;4694;52.464;13.480;2023-04-07T18:56:08;4.75;;;3.33;;
9310;SDS011;4694;52.464;13.480;2023-04-07T18:58:36;4.22;;;3.58;;
9310;SDS011;4694;52.464;13.480;2023-04-07T19:01:08;4.65;;;3.10;;
9310;SDS011;4694;52.464;13.480;2023-04-07T19:03:36;5.97;;;3.78;;
9310;SDS011;4694;52.464;13.480;2023-04-07T19:06:03;4.70;;;2.83;;
9310;SDS011;4694;52.464;13.480;2023-04-07T19:08:30;6.38;;;3.92;;
9310;SDS011;4694;52.464;13.480;2023-04-07T19:10:57;5.13;;;3.17;;
9310;SDS011;4694;52.464;13.480;2023-04-07T19:13:24;7.05;;;3.35;;
9310;SDS011;4694;52.464;13.480;2023-04-07T19:15:52;5.72;;;3.58;;
9310;SDS011;4694;52.464;13.480;2023-04-07T19:18:20;7.10;;;3.50;;
9310;SDS011;4694;52.464;13.480;2023-04-07T19:20:47;5.28;;;3.67;;
9310;SDS011;4694;52.464;13.480;2023-04-07T19:23:14;6.93;;;3.70;;
9310;SDS011;4694;52.464;13.480;2023-04-07T19:25:41;6.35;;;3.92;;
9310;SDS011;4694;52.464;13.480;2023-04-07T19:28:08;6.85;;;4.10;;
9310;SDS011;4694;52.464;13.480;2023-04-07T19:30:36;5.10;;;2.80;;
9310;SDS011;4694;52.464;13.480;2023-04-07T19:33:04;3.65;;;2.72;;
9310;SDS011;4694;52.464;13.480;2023-04-07T19:35:31;5.93;;;2.95;;
9310;SDS011;4694;52.464;13.480;2023-04-07T19:37:58;6.13;;;3.97;;
9310;SDS011;4694;52.464;13.480;2023-04-07T19:40:26;4.90;;;2.67;;
9310;SDS011;4694;52.464;13.480;2023-04-07T19:42:55;4.50;;;3.10;;
9310;SDS011;4694;52.464;13.480;2023-04-07T19:45:22;6.13;;;2.78;;
9310;SDS011;4694;52.464;13.480;2023-04-07T19:47:49;4.15;;;2.78;;
9310;SDS011;4694;52.464;13.480;2023-04-07T19:50:17;4.32;;;2.70;;
9310;SDS011;4694;52.464;13.480;2023-04-07T19:52:44;6.55;;;3.33;;
9310;SDS011;4694;52.464;13.480;2023-04-07T19:55:11;6.65;;;3.90;;
9310;SDS011;4694;52.464;13.480;2023-04-07T19:57:39;6.47;;;3.95;;
9310;SDS011;4694;52.464;13.480;2023-04-07T20:00:06;7.10;;;3.78;;
9310;SDS011;4694;52.464;13.480;2023-04-07T20:02:33;8.82;;;5.40;;
